Southport, North Carolina
Current Conditions -  °F | °C
As of 3:35 PM on Tuesday 21 Oct 2014 (Local Time) from KSUT Reporting Station
Clear Clear  
Wind Chill: 74°   Ceiling: Unl
Heat Index: 74°   Visibility: 10mi
Dew Point: 56°   Wind: 7mph
Humidity: 53%   Direction: 210°SSW
Pressure: 29.85"   Gusts: NA
Location:  33.92°N, 78.02°W
Report Text: KSUT 211935Z AUTO 21006KT 10SM CLR 24/13 A2985 RMK AO2 T02350133
Loading
Personal Weather Stations






























Interactive Weather Map New forecast layout! Learn more

10-Day Weather Forecast

Advertisements
Track Severe Weather on mobile